Tips voor optimaal zoeken

Zoek op trefwoorden of stel een vraag
Typ een trefwoord zoals beurskoers, of stel een vraag zoals Wat is het laatste nieuws over Amerika?.
Exacte zinnen zoeken
Zet aanhalingstekens om een exacte woordcombinatie te vinden, bijvoorbeeld "Johan Cruijff ArenA".
Resultaten filteren
Na het zoeken kunt u filteren op publicatieperiode, bron, onderwerp en auteur.
Zoekopdrachten volgen
Wilt u updates ontvangen over een onderwerp? Via "Mijn nieuws" kunt u een term volgen.
Close sub menu
NASDAQ
NY-Nasdaq Composite 26.584,060 +366,23 +1,40% 22:26
Stijgers 1 dag
Dalers 1 dag
Indices 1 dag
CrowdStrike Holdings Inc +5,7%
Tesla Inc +5,4%
Atlassian Corporation PLC +4,4%
Copart Inc +4,4%
Illumina Inc +3,9%
PayPal Holdings Inc +3,9%
Workday Inc +3,0%
Meta Platforms Inc +3,0%
Zscaler Inc +2,9%
Fastenal Company +2,7%
Microsoft Corporation +2,7%
Datadog Inc +2,6%
Charter Communications Inc -4,8%
Kraft Heinz Company -3,2%
Broadcom Inc -2,7%
Lucid Group Inc -2,3%
Booking Holdings Inc -2,2%
ASML Holding NV -2,1%
IDEXX Laboratories Inc -1,8%
Autodesk Inc -1,7%
Constellation Energy Corporation -1,7%
Mondelez International Inc -1,6%
NXP Semiconductors NV -1,5%
Baker Hughes Company -1,5%
AEX* 1.104,62+0,1%
Midkap* 1.109,85+0,3%
AMS Next 20®* 1.601,84+1,0%
FTSE100 10.831,52+0,7%
Dow Jones 53.686,11+1,2%
NASDAQ 26.584,06+1,4%
S&P500 7.747,71+1,1%
S&P Future 7.751,00+1,0%
BEL20** 5.879,05+0,9%
CAC 40** 8.280,63-0,3%
DAX 26.003,32+0,6%
* real time    ** slotkoers
NaamKoersVorige+/- %1 wk1 mndDit jaar 1 jaarTijd
Adobe Inc 285,75 279,79 +2,1% +2,3% +11,7% -20,1% -19,0% 22:15
Advanced Micro Devices Inc 456,16 457,06 -0,2% -5,0% -4,0% +113,4% +181,6% 22:15
Airbnb Inc 185,25 183,26 +1,1% -2,6% +20,9% +35,0% +43,6% 22:15
Align Technology Inc 159,86 159,15 +0,4% 0,0% -5,9% +1,9% +16,0% 22:00
Alphabet Inc 339,08 333,78 +1,6% -1,6% -6,4% +6,4% +57,5% 22:15
Alphabet Inc 342,48 337,12 +1,6% -1,4% -5,3% +7,7% +59,5% 22:15
Amazon.com Inc 258,90 254,98 +1,5% -2,0% -6,1% +10,5% +13,2% 22:15
American Electric Power Company 124,71 123,57 +0,9% +0,2% -3,3% +7,2% +12,2% 22:15
Amgen Inc 444,12 442,84 +0,3% +0,6% +15,0% +35,3% +54,3% 22:15
Analog Devices Inc 356,50 355,71 +0,2% -4,3% -3,2% +31,2% +43,2% 22:15
Ansys 374,30 374,30 -- -- -4,7% +11,0% +15,2% 22:00
Apple Inc 328,21 324,96 +1,0% +3,7% +5,2% +19,5% +41,5% 22:15
Applied Materials Inc 435,91 438,46 -0,6% -8,6% -13,6% +70,6% +178,3% 22:15
ASML Holding NV 1.646,19 1.682,30 -2,1% -3,6% +3,3% +57,2% +131,8% 22:15
AstraZeneca Plc 164,77 161,63 +1,9% -2,8% -4,7% -12,1% +0,8% 22:15
Atlassian Corporation PLC 194,68 186,44 +4,4% +10,7% +84,6% +15,0% +8,0% 22:15
Autodesk Inc 237,52 241,73 -1,7% -5,1% +3,2% -18,3% -24,3% 22:15
Automatic Data Processing Inc 283,53 281,16 +0,8% -0,1% +5,5% +9,3% -6,2% 22:15
Baker Hughes Company 63,64 64,63 -1,5% +4,2% +6,8% +41,9% +42,5% 22:15
Biogen Inc 224,51 222,67 +0,8% +0,7% +9,7% +26,5% +59,5% 22:15
Booking Holdings Inc 195,13 199,60 -2,2% -4,4% +3,5% -6,8% -9,4% 22:15
Broadcom Inc 357,16 367,24 -2,7% +3,3% -5,7% +6,1% +23,1% 22:15
Cadence Design Systems Inc 304,88 306,67 -0,6% -8,4% -9,8% -1,9% -10,5% 22:15
Charter Communications Inc 151,38 158,97 -4,8% +3,3% +9,6% -23,8% -39,9% 22:15
Cintas Corporation 201,05 198,09 +1,5% -3,7% -3,2% +5,3% -3,6% 22:15
Cisco Systems Inc 108,61 109,46 -0,8% -2,6% -5,6% +42,1% +61,4% 22:15
Cognizant Technology Solutions Corp 64,64 63,40 +2,0% +2,1% +14,6% -23,6% -11,7% 22:00
Comcast Corp 26,65 26,81 -0,6% -1,4% +11,9% -10,3% -21,4% 22:15
Constellation Energy Corporation 285,05 290,04 -1,7% +3,8% +10,4% -17,9% -5,6% 22:15
Copart Inc 33,58 32,16 +4,4% -1,6% +10,4% -17,9% -33,7% 22:15
CoStar Group Inc 31,68 31,26 +1,3% -2,7% +8,7% -53,5% -64,5% 22:15
Costco Wholesale Corporation 925,41 928,48 -0,3% -2,9% -2,5% +7,7% -1,1% 22:15
CrowdStrike Holdings Inc 214,97 203,42 +5,7% +7,5% +6,6% +73,6% +96,8% 22:15
CSX Corporation 48,99 48,65 +0,7% -6,0% -3,5% +34,2% +51,1% 22:00
Datadog Inc 214,76 209,23 +2,6% -8,1% -21,9% +53,9% +55,3% 22:15
DexCom Inc 89,71 89,69 0,0% +0,8% +7,5% +35,1% +20,7% 22:15
Diamondback Energy Inc 202,94 203,42 -0,2% +1,8% +0,2% +35,3% +35,7% 22:15
Dollar Tree Inc 131,04 131,91 -0,7% -0,2% +3,7% +7,2% +18,5% 22:15
eBay Inc 105,86 106,70 -0,8% +2,4% -6,4% +22,5% +18,7% 22:15
Electronic Arts Inc 209,70 209,70 -- -- -0,1% +2,6% +22,3% 22:15
Enphase Energy Inc 36,31 35,52 +2,2% -7,5% -5,4% +10,8% -3,9% 22:15
Exelon Corporation 44,53 43,97 +1,3% -1,1% -4,0% +0,9% +1,4% 22:15
Fastenal Company 49,23 47,93 +2,7% -6,3% +0,5% +19,4% -2,6% 22:00
Fortinet Inc 156,36 154,54 +1,2% -1,9% -4,6% +94,6% +100,9% 22:15
Gilead Sciences Inc 151,22 149,61 +1,1% +1,0% +14,9% +21,9% +32,7% 22:15
Global Foundries Inc 44,53 43,97 +1,3% -3,7% -12,0% +25,9% +32,6% 22:15
Honeywell International Inc 207,63 206,07 +0,8% -6,6% -15,2% +5,6% -5,3% 22:15
IDEXX Laboratories Inc 529,29 538,99 -1,8% -2,6% -3,6% -20,3% -15,7% 22:15
Illumina Inc 221,66 213,25 +3,9% -5,2% +4,0% +62,6% +118,0% 22:15
Intel Corporation 91,67 90,05 +1,8% +2,1% -0,2% +144,0% +272,0% 22:15
Intuit Inc 344,30 342,94 +0,4% -0,9% +8,5% -48,2% -48,2% 22:15
Intuitive Surgical Inc 369,83 371,88 -0,6% +0,4% +5,3% -34,3% -20,7% 22:15
JD com Inc 27,74 27,83 -0,3% -3,3% -15,7% -3,0% -11,9% 22:15
Keurig Dr Pepper Inc 32,88 32,59 +0,9% +1,2% +4,7% +16,4% +12,7% 22:00
KLA Corporation 172,94 172,26 +0,4% -6,3% -5,8% +41,8% +103,5% 22:15
Kraft Heinz Company 25,42 26,26 -3,2% +5,9% +1,6% +8,3% +0,9% 22:15
Lam Research Corporation 292,66 288,32 +1,5% -7,8% -1,6% +68,4% +197,1% 22:15
Lucid Group Inc 4,60 4,71 -2,3% -4,8% -36,2% -55,4% -73,3% 22:15
Lululemon Athletica Inc 121,77 120,07 +1,4% +3,2% +1,0% -42,2% -40,0% 22:15
Marriott International Inc 336,07 333,14 +0,9% -7,1% -10,6% +7,4% +26,0% 22:15
Marvell Technology Inc 208,83 206,48 +1,1% -15,8% +10,1% +143,0% +219,6% 22:15
MercadoLibre Inc 1.991,06 2.006,58 -0,8% +2,9% +6,8% -0,4% -15,7% 22:15
Meta Platforms Inc 610,68 592,85 +3,0% +2,9% +6,5% -10,2% -19,4% 22:15
Microchip Technology Inc 73,11 72,76 +0,5% -1,7% -2,1% +14,2% +14,4% 22:15
Micron Technology Inc 958,16 956,08 +0,2% +1,9% +16,2% +235,0% +707,0% 22:15
Microsoft Corporation 510,12 496,82 +2,7% +0,1% +6,9% +2,7% -1,6% 22:15
Moderna Inc 148,87 150,81 -1,3% +0,8% +175,1% +411,4% +523,4% 22:15
Mondelez International Inc 61,45 62,45 -1,6% -0,9% +0,2% +16,0% +1,1% 22:15
Monster Beverage Corporation 44,08 44,42 -0,8% -7,1% -7,8% +15,9% +41,8% 22:15
Netflix Inc 82,67 82,73 -0,1% +1,6% +15,4% -11,8% -31,9% 22:15
NVIDIA Corporation 228,45 224,41 +1,8% +7,0% +11,8% +20,3% +31,4% 22:15
NXP Semiconductors NV 224,99 228,50 -1,5% +2,4% -0,3% +5,3% -1,8% 22:15
O Reilly Automotive Inc 87,38 86,97 +0,5% -2,9% -2,7% -4,6% -15,7% 22:15
Old Dominion Freight Line Inc 185,78 187,61 -1,0% -5,9% -11,5% +19,6% +25,2% 22:00
PACCAR Inc 124,52 122,13 +2,0% -5,5% -7,9% +11,5% +23,5% 22:00
Palo Alto Networks Inc 331,94 328,48 +1,1% -3,2% -1,0% +78,3% +72,4% 22:15
Paychex Inc 125,08 124,00 +0,9% -0,7% +6,1% +10,5% -8,8% 22:15
PayPal Holdings Inc 56,82 54,67 +3,9% -11,6% -4,4% -6,4% -21,1% 22:15
PDD Holdings Inc 81,63 82,25 -0,8% -5,2% -7,1% -27,5% -32,4% 22:15
PepsiCo Inc 140,02 140,52 -0,4% -1,2% +0,7% -2,1% -6,5% 22:15
QUALCOMM Inc 168,57 169,96 -0,8% +3,8% +15,1% -0,6% +7,0% 22:15
Regeneron Pharmaceuticals Inc 843,47 852,03 -1,0% +4,6% +11,7% +10,4% +47,4% 22:15
Rivian Automotive Inc 15,91 15,61 +1,9% -4,4% +2,6% -20,8% +12,5% 22:15
Ross Stores Inc 231,67 230,85 +0,4% -2,3% -8,1% +28,2% +52,6% 22:15
Seagen 228,89 228,74 -- -- +7,2% +78,1% +78,3% 22:00
SiriusXM Holdings Inc 29,77 29,70 +0,2% +4,2% +0,3% +48,5% +28,5% 22:15
Starbucks Corporation 105,82 106,72 -0,8% -1,6% +1,4% +26,7% +18,9% 22:15
Synopsys Inc 416,31 415,97 +0,1% +1,5% +7,0% -11,4% -29,7% 22:15
T Mobile US Inc 188,02 187,30 +0,4% +4,3% +8,4% -7,8% -26,8% 22:15
Tesla Inc 376,37 357,01 +5,4% +3,2% +14,7% -20,6% +8,4% 22:15
Texas Instruments Incorporated 253,83 254,80 -0,4% -2,7% -7,6% +46,9% +27,5% 22:15
Verisk Analytics Inc 190,60 188,16 +1,3% +0,2% -3,4% -15,9% -29,0% 22:00
Vertex Pharmaceuticals Inc 557,96 556,75 +0,2% +1,7% +16,7% +22,8% +38,8% 22:15
Walgreens Boots Alliance 11,98 11,98 -- -- +0,5% +28,4% +40,6% 22:00
Warner Brothers Discovery Inc 28,37 28,39 -0,1% -1,3% +7,9% -1,5% +144,3% 22:15
Workday Inc 206,92 200,87 +3,0% +5,3% +25,3% -6,5% -12,2% 22:15
Xcel Energy Inc 76,34 75,51 +1,1% -2,8% -3,4% +2,2% +4,7% 22:15
Zoom Communications Inc 98,14 95,86 +2,4% +2,2% -0,2% +11,1% +17,0% 22:15
Zscaler Inc 177,80 172,73 +2,9% +1,4% +14,2% -23,2% -37,1% 22:15
Powered by

Schakel browser notificaties in

Schakel browser notificaties in om meldingen te ontvangen op dit apparaat.

Browser notificaties inschakelen

U heeft browser notificaties voor fd.nl eerder geweigerd. Ga naar browser instellingen en sta browser notificaties toe voor fd.nl. De precieze handelingen zijn afhankelijk van uw browser.

U volgt een onderwerp

Wanneer deze zoekterm in een artikel voorkomt, zult u deze terugvinden in Mijn nieuws onder ‘Eurobonds’.

Wilt u via de FD App meldingen ontvangen voor dit onderwerp?

Wilt u via de FD App meldingen ontvangen voor dit onderwerp?

Ons privacy statement is van toepassing.

Meldingen

Wanneer deze zoekterm in een artikel voorkomt, zult u deze terugvinden in Mijn nieuws onder ‘Eurobonds’.

Wilt u via de FD App meldingen ontvangen voor dit onderwerp?

Wilt u via de FD App meldingen ontvangen voor dit onderwerp?